createdAt,value
2023-02-13T00:01:47.072Z,90.51
2023-02-13T00:06:51.622Z,90.47
2023-02-13T00:11:54.884Z,90.86
2023-02-13T00:16:58.328Z,90.63
2023-02-13T00:22:03.040Z,90.91
2023-02-13T00:27:06.319Z,90.36
2023-02-13T00:32:10.181Z,90.37
2023-02-13T00:37:15.019Z,90.40
2023-02-13T00:42:18.260Z,90.07
2023-02-13T00:47:22.350Z,90.53
2023-02-13T00:52:27.016Z,90.24
2023-02-13T00:57:31.930Z,90.60
2023-02-13T01:02:36.352Z,90.19
2023-02-13T01:07:41.276Z,90.17
2023-02-13T01:12:44.428Z,89.86
2023-02-13T01:17:47.760Z,89.71
2023-02-13T01:22:52.880Z,89.83
2023-02-13T01:27:56.197Z,89.45
2023-02-13T01:32:59.533Z,89.46
2023-02-13T01:38:04.456Z,89.34
2023-02-13T01:43:11.108Z,88.81
2023-02-13T01:48:18.256Z,89.32
2023-02-13T01:53:28.592Z,88.95
2023-02-13T01:58:35.320Z,89.45
2023-02-13T02:03:42.043Z,88.98
2023-02-13T02:08:50.624Z,88.78
2023-02-13T02:13:55.509Z,88.77
2023-02-13T02:19:36.345Z,89.17
2023-02-13T02:25:09.048Z,88.83
2023-02-13T02:30:51.969Z,88.92
2023-02-13T02:36:08.801Z,88.86
2023-02-13T02:41:35.617Z,88.55
2023-02-13T02:47:02.883Z,88.69
2023-02-13T02:52:14.413Z,88.63
2023-02-13T02:57:23.236Z,88.52
2023-02-13T03:02:44.046Z,88.26
2023-02-13T03:07:48.773Z,88.03
2023-02-13T03:13:14.811Z,87.87
2023-02-13T03:18:35.407Z,87.25
2023-02-13T03:23:52.679Z,87.70
2023-02-13T03:29:20.558Z,87.60
2023-02-13T03:34:49.077Z,87.98
2023-02-13T03:40:02.161Z,87.50
2023-02-13T03:45:30.586Z,87.56
2023-02-13T03:50:33.935Z,87.40
2023-02-13T03:55:59.953Z,87.30
2023-02-13T04:01:06.326Z,87.54
2023-02-13T04:06:15.423Z,88.02
2023-02-13T04:11:26.722Z,88.87
2023-02-13T04:16:34.573Z,89.34
2023-02-13T04:21:40.346Z,90.07
2023-02-13T04:26:47.998Z,90.03
2023-02-13T04:31:51.563Z,90.33
2023-02-13T04:36:55.396Z,90.53
2023-02-13T04:42:00.127Z,90.56
2023-02-13T04:47:03.428Z,90.58
2023-02-13T04:52:06.832Z,90.82
2023-02-13T04:57:11.401Z,90.87
2023-02-13T05:02:14.577Z,91.75
2023-02-13T05:07:18.091Z,91.72
2023-02-13T05:12:22.869Z,91.66
2023-02-13T05:17:28.299Z,91.87
2023-02-13T05:22:48.947Z,91.48
2023-02-13T05:27:53.553Z,91.96
2023-02-13T05:32:57.139Z,91.93
2023-02-13T05:38:00.662Z,91.90
2023-02-13T05:43:05.316Z,91.84
2023-02-13T05:48:09.006Z,91.66
2023-02-13T05:53:12.317Z,91.66
2023-02-13T05:58:17.071Z,91.87
2023-02-13T06:03:20.586Z,91.44
2023-02-13T06:08:25.064Z,90.87
2023-02-13T06:13:30.223Z,90.84
2023-02-13T06:18:33.492Z,90.89
2023-02-13T06:23:37.010Z,90.67
2023-02-13T06:28:41.743Z,90.56
2023-02-13T06:33:45.152Z,89.88
2023-02-13T06:38:48.464Z,89.97
2023-02-13T06:43:53.759Z,89.40
2023-02-13T06:48:57.199Z,89.59
2023-02-13T06:54:00.430Z,89.00
2023-02-13T06:59:05.068Z,88.80
2023-02-13T07:04:08.462Z,88.08
2023-02-13T07:09:13.575Z,87.80
2023-02-13T07:14:18.262Z,87.64
2023-02-13T07:19:21.630Z,86.70
2023-02-13T07:24:24.852Z,87.26
2023-02-13T07:29:29.903Z,87.43
2023-02-13T07:34:33.189Z,87.35
2023-02-13T07:39:39.016Z,87.85
2023-02-13T07:44:43.737Z,87.85
2023-02-13T07:49:47.327Z,88.20
2023-02-13T07:54:51.580Z,87.28
2023-02-13T07:59:56.304Z,86.66
2023-02-13T08:04:59.718Z,86.00
2023-02-13T08:10:21.123Z,85.92
2023-02-13T08:15:26.080Z,85.51
2023-02-13T08:20:29.599Z,86.12
2023-02-13T08:25:32.766Z,86.29
2023-02-13T08:30:37.419Z,86.02
2023-02-13T08:35:40.625Z,86.01
2023-02-13T08:40:43.906Z,86.97
2023-02-13T08:45:48.742Z,86.48
2023-02-13T08:50:57.996Z,85.71
2023-02-13T08:56:01.435Z,84.41
2023-02-13T09:01:08.656Z,84.13
2023-02-13T09:06:11.885Z,84.42
2023-02-13T09:11:15.157Z,84.69
2023-02-13T09:16:20.152Z,84.81
2023-02-13T09:21:24.841Z,86.06
2023-02-13T09:26:28.133Z,85.18
2023-02-13T09:31:33.112Z,85.54
2023-02-13T09:36:37.509Z,84.44
2023-02-13T09:41:44.034Z,84.85
2023-02-13T09:46:48.909Z,85.35
2023-02-13T09:51:58.242Z,85.81
2023-02-13T09:57:05.470Z,85.05
2023-02-13T10:02:25.365Z,85.07
2023-02-13T10:07:38.689Z,83.98
2023-02-13T10:13:01.064Z,83.48
2023-02-13T10:18:11.302Z,82.60
2023-02-13T10:23:22.428Z,81.20
2023-02-13T10:28:35.123Z,81.62
2023-02-13T10:33:49.025Z,81.38
2023-02-13T10:38:58.608Z,81.78
2023-02-13T10:44:19.194Z,81.89
2023-02-13T10:49:36.409Z,81.67
2023-02-13T10:54:59.627Z,82.28
2023-02-13T11:00:12.050Z,82.17
2023-02-13T11:05:19.573Z,82.70
2023-02-13T11:10:24.706Z,83.30
2023-02-13T11:15:30.060Z,82.76
2023-02-13T11:20:38.081Z,81.90
2023-02-13T11:25:41.541Z,82.11
2023-02-13T11:30:45.251Z,82.56
2023-02-13T11:35:50.299Z,83.85
2023-02-13T11:41:05.277Z,85.13
2023-02-13T11:46:15.510Z,86.34
2023-02-13T11:51:21.173Z,86.63
2023-02-13T11:56:24.369Z,87.71
2023-02-13T12:01:29.833Z,88.51
2023-02-13T12:06:40.014Z,89.78
2023-02-13T12:11:47.264Z,90.03
2023-02-13T12:16:54.345Z,89.65
2023-02-13T12:22:15.542Z,89.25
2023-02-13T12:27:30.472Z,89.51
2023-02-13T12:32:44.107Z,89.63
2023-02-13T12:38:05.740Z,89.50
2023-02-13T12:43:26.389Z,88.90
2023-02-13T12:48:40.464Z,89.27
2023-02-13T12:54:02.878Z,89.20
2023-02-13T12:59:14.530Z,89.25
2023-02-13T13:04:27.414Z,89.32
2023-02-13T13:09:52.367Z,89.65
2023-02-13T13:15:03.430Z,90.62
2023-02-13T13:20:32.145Z,90.89
2023-02-13T13:25:44.960Z,90.77
2023-02-13T13:30:49.891Z,90.46
2023-02-13T13:36:03.511Z,90.78
2023-02-13T13:41:16.162Z,90.95
2023-02-13T13:46:28.411Z,90.86
2023-02-13T13:51:32.529Z,90.60
2023-02-13T13:57:12.529Z,90.67
2023-02-13T14:02:40.562Z,90.49
2023-02-13T14:07:44.143Z,90.59
2023-02-13T14:12:49.340Z,90.36
2023-02-13T14:17:54.771Z,90.88
2023-02-13T14:23:07.349Z,91.24
2023-02-13T14:28:23.256Z,91.54
2023-02-13T14:33:29.778Z,91.69
2023-02-13T14:38:35.773Z,92.56
2023-02-13T14:43:51.450Z,94.09
2023-02-13T14:49:00.831Z,94.39
2023-02-13T14:54:17.064Z,95.06
2023-02-13T14:59:25.843Z,95.82
2023-02-13T15:04:33.555Z,96.19
2023-02-13T15:09:39.940Z,96.14
2023-02-13T15:14:44.682Z,97.25
2023-02-13T15:19:51.494Z,97.45
2023-02-13T15:24:54.768Z,98.33
2023-02-13T15:30:03.655Z,98.37
2023-02-13T15:35:23.681Z,98.53
2023-02-13T15:40:29.429Z,99.42
2023-02-13T15:45:34.414Z,100.00
2023-02-13T15:50:38.119Z,100.00
2023-02-13T15:55:41.466Z,100.00
2023-02-13T16:00:46.261Z,100.00
2023-02-13T16:05:51.154Z,100.00
2023-02-13T16:11:24.985Z,100.00
2023-02-13T16:16:32.620Z,100.00
2023-02-13T16:21:36.057Z,100.00
2023-02-13T16:26:42.551Z,100.00
2023-02-13T16:31:47.472Z,100.00
2023-02-13T16:36:50.911Z,100.00
2023-02-13T16:41:54.442Z,100.00
2023-02-13T16:47:02.236Z,100.00
2023-02-13T16:52:17.965Z,100.00
2023-02-13T16:57:32.751Z,100.00
2023-02-13T17:02:38.596Z,100.00
2023-02-13T17:07:44.177Z,100.00
2023-02-13T17:12:47.541Z,100.00
2023-02-13T17:17:53.817Z,100.00
2023-02-13T17:22:58.645Z,100.00
2023-02-13T17:28:04.317Z,100.00
2023-02-13T17:33:13.392Z,100.00
2023-02-13T17:38:17.651Z,100.00
2023-02-13T17:43:22.107Z,100.00
2023-02-13T17:48:26.716Z,100.00
2023-02-13T17:53:31.459Z,100.00
2023-02-13T17:58:34.633Z,100.00
2023-02-13T18:03:39.493Z,100.00
2023-02-13T18:08:42.977Z,100.00
2023-02-13T18:13:48.552Z,100.00
2023-02-13T18:18:53.263Z,100.00
2023-02-13T18:23:56.426Z,100.00
2023-02-13T18:28:59.615Z,100.00
2023-02-13T18:34:04.218Z,100.00
2023-02-13T18:39:08.142Z,100.00
2023-02-13T18:44:20.163Z,100.00
2023-02-13T18:49:32.180Z,100.00
2023-02-13T18:54:35.399Z,100.00
2023-02-13T18:59:38.606Z,100.00
2023-02-13T19:04:43.355Z,100.00
2023-02-13T19:09:46.607Z,100.00
2023-02-13T19:14:49.825Z,100.00
2023-02-13T19:19:55.814Z,100.00
2023-02-13T19:24:59.270Z,100.00
2023-02-13T19:30:02.571Z,100.00
2023-02-13T19:35:08.128Z,100.00
2023-02-13T19:40:12.799Z,100.00
2023-02-13T19:45:17.071Z,100.00
2023-02-13T19:50:22.547Z,100.00
2023-02-13T19:55:27.327Z,100.00
2023-02-13T20:00:31.200Z,100.00
2023-02-13T20:05:41.065Z,100.00
2023-02-13T20:10:46.480Z,100.00
2023-02-13T20:15:50.027Z,100.00
2023-02-13T20:20:54.715Z,100.00
2023-02-13T20:26:03.249Z,100.00
2023-02-13T20:31:11.651Z,100.00
2023-02-13T20:36:18.282Z,100.00
2023-02-13T20:41:23.396Z,100.00
2023-02-13T20:46:26.929Z,100.00
2023-02-13T20:51:31.644Z,100.00
2023-02-13T20:56:35.029Z,100.00
2023-02-13T21:01:41.574Z,100.00
2023-02-13T21:06:47.696Z,100.00
2023-02-13T21:11:51.075Z,100.00
2023-02-13T21:16:54.481Z,100.00
2023-02-13T21:22:12.086Z,100.00
2023-02-13T21:27:15.478Z,100.00
2023-02-13T21:32:20.135Z,100.00
2023-02-13T21:37:24.686Z,100.00
2023-02-13T21:42:28.170Z,100.00
2023-02-13T21:47:31.635Z,100.00
2023-02-13T21:52:36.441Z,100.00
2023-02-13T21:57:39.987Z,100.00
2023-02-13T22:02:43.173Z,100.00
2023-02-13T22:08:13.508Z,100.00
2023-02-13T22:13:16.749Z,100.00
2023-02-13T22:18:20.077Z,100.00
2023-02-13T22:28:37.569Z,100.00
2023-02-13T22:33:40.941Z,100.00
2023-02-13T22:38:46.087Z,100.00
2023-02-13T22:43:49.684Z,100.00
2023-02-13T22:48:53.375Z,100.00
2023-02-13T22:53:59.249Z,100.00
2023-02-13T22:59:02.482Z,100.00
2023-02-13T23:04:05.990Z,100.00
2023-02-13T23:09:10.615Z,100.00
2023-02-13T23:14:14.738Z,100.00
2023-02-13T23:19:17.959Z,100.00
2023-02-13T23:24:23.025Z,100.00
2023-02-13T23:29:26.915Z,100.00
2023-02-13T23:34:30.565Z,100.00
2023-02-13T23:39:35.313Z,100.00
2023-02-13T23:44:38.757Z,100.00
2023-02-13T23:49:41.988Z,100.00
2023-02-13T23:54:47.064Z,100.00
2023-02-13T23:59:51.191Z,100.00
